Time;durP1;ratioP1;P1;durP2;ratioP2;P2;SDS_P1;SDS_P2;PMS_P1;PMS_P2;Temp;Humidity;BMP_temperature;BMP_pressure;BME280_temperature;BME280_humidity;BME280_pressure;Samples;Min_cycle;Max_cycle;Signal;HPM_P1;HPM_P2
2022/01/23 00:00:20;;;;;;;18.05;11.52;;;7.40;99.90;;;;;;5120811;27;20468;-69
2022/01/23 00:02:47;;;;;;;15.80;10.15;;;7.50;99.90;;;;;;5126429;27;20031;-70
2022/01/23 00:05:14;;;;;;;16.38;10.77;;;7.40;99.90;;;;;;5123969;27;20028;-69
2022/01/23 00:07:41;;;;;;;22.88;11.32;;;7.30;99.90;;;;;;5126628;27;20552;-68
2022/01/23 00:10:10;;;;;;;17.10;11.00;;;7.30;99.90;;;;;;5126355;27;20031;-68
2022/01/23 00:12:44;;;;;;;22.33;11.43;;;7.30;99.90;;;;;;5130370;27;20023;-69
2022/01/23 00:17:54;;;;;;;22.27;11.77;;;7.40;99.90;;;;;;5123150;27;20077;-69
2022/01/23 00:20:19;;;;;;;19.67;11.90;;;7.20;99.90;;;;;;5125881;27;20031;-68
2022/01/23 00:22:49;;;;;;;18.67;12.30;;;7.30;99.90;;;;;;5125864;27;20471;-68
2022/01/23 00:30:45;;;;;;;16.98;11.10;;;7.30;99.90;;;;;;5118914;27;20042;-69
2022/01/23 00:33:12;;;;;;;20.33;11.75;;;7.40;99.90;;;;;;5116187;27;20023;-69
2022/01/23 00:35:41;;;;;;;19.52;11.57;;;7.40;99.90;;;;;;5123890;27;20031;-68
2022/01/23 00:38:09;;;;;;;19.85;11.52;;;7.40;99.90;;;;;;5120386;27;20024;-69
2022/01/23 00:40:37;;;;;;;20.67;11.63;;;7.30;99.90;;;;;;5115479;28;20121;-69
2022/01/23 00:43:15;;;;;;;17.33;11.95;;;7.40;99.90;;;;;;5127651;27;20448;-69
2022/01/23 00:45:47;;;;;;;18.15;11.38;;;7.40;99.90;;;;;;5130189;27;20069;-71
2022/01/23 00:48:15;;;;;;;18.67;10.98;;;7.40;99.90;;;;;;5123385;27;20035;-71
2022/01/23 00:50:44;;;;;;;17.83;11.70;;;7.50;99.90;;;;;;5116538;27;20028;-70
2022/01/23 00:53:12;;;;;;;19.25;11.68;;;7.40;99.90;;;;;;5109382;27;20035;-72
2022/01/23 00:55:43;;;;;;;18.63;11.32;;;7.50;99.90;;;;;;5118580;27;20023;-73
2022/01/23 00:58:10;;;;;;;17.98;12.80;;;7.50;99.90;;;;;;5123259;27;20068;-70
2022/01/23 01:00:37;;;;;;;21.13;11.68;;;7.50;99.90;;;;;;5119658;27;20057;-70
2022/01/23 01:03:03;;;;;;;19.95;12.25;;;7.40;99.90;;;;;;5126060;27;20027;-71
2022/01/23 01:05:30;;;;;;;17.20;12.23;;;7.50;99.90;;;;;;5124919;27;20030;-70
2022/01/23 01:07:58;;;;;;;17.30;11.50;;;7.40;99.90;;;;;;5121170;27;20054;-70
2022/01/23 01:10:31;;;;;;;17.95;11.43;;;7.40;99.90;;;;;;5122173;27;20030;-70
2022/01/23 01:12:59;;;;;;;21.58;12.75;;;7.40;99.90;;;;;;5123411;27;20019;-69
2022/01/23 01:31:39;;;;;;;19.02;12.07;;;7.40;99.90;;;;;;5123487;27;20031;-70
2022/01/23 01:34:14;;;;;;;23.98;13.43;;;7.40;99.90;;;;;;5120219;27;20161;-67
2022/01/23 01:36:51;;;;;;;24.75;13.35;;;7.30;99.90;;;;;;5112462;28;20024;-67
2022/01/23 01:39:23;;;;;;;23.95;14.10;;;7.20;99.90;;;;;;5113530;28;20139;-72
2022/01/23 01:41:50;;;;;;;23.17;14.15;;;7.10;99.90;;;;;;5113432;28;20031;-68
2022/01/23 01:44:17;;;;;;;23.55;13.93;;;7.10;99.90;;;;;;5113452;28;20376;-67
2022/01/23 01:46:43;;;;;;;22.52;13.02;;;7.20;99.90;;;;;;5111769;28;20023;-68
2022/01/23 01:49:09;;;;;;;21.65;13.82;;;7.10;99.90;;;;;;5113324;28;20461;-67
2022/01/23 01:51:36;;;;;;;22.60;14.88;;;7.20;99.90;;;;;;5112545;28;20027;-68
2022/01/23 01:54:09;;;;;;;22.77;14.20;;;7.20;99.90;;;;;;5114094;28;20032;-67
2022/01/23 01:56:46;;;;;;;25.20;14.73;;;7.20;99.90;;;;;;5112783;28;20019;-68
2022/01/23 02:09:37;;;;;;;27.52;16.33;;;7.10;99.90;;;;;;5112823;28;20039;-68
2022/01/23 02:12:56;;;;;;;26.15;14.70;;;7.10;99.90;;;;;;5112965;28;20106;-67
2022/01/23 02:23:26;;;;;;;26.75;15.85;;;7.10;99.90;;;;;;5117522;28;20093;-64
2022/01/23 02:55:52;;;;;;;23.70;14.13;;;7.20;99.90;;;;;;5116431;28;20034;-67
2022/01/23 02:58:21;;;;;;;25.58;15.25;;;7.20;99.90;;;;;;5116739;28;20015;-68
2022/01/23 03:01:07;;;;;;;24.75;15.02;;;7.20;99.90;;;;;;5115938;28;20047;-67
2022/01/23 03:03:37;;;;;;;21.33;13.77;;;7.20;99.90;;;;;;5115357;28;20031;-66
2022/01/23 03:06:38;;;;;;;25.50;13.60;;;7.20;99.90;;;;;;5116450;28;20485;-67
2022/01/23 03:14:38;;;;;;;23.38;14.60;;;7.20;99.90;;;;;;5116367;28;20019;-66
2022/01/23 03:31:08;;;;;;;25.73;15.32;;;7.20;99.90;;;;;;5137135;27;20046;-68
2022/01/23 03:33:35;;;;;;;21.17;14.00;;;7.20;99.90;;;;;;5135899;27;20023;-69
2022/01/23 03:36:03;;;;;;;25.63;15.05;;;7.30;99.90;;;;;;5135685;27;20027;-70
2022/01/23 03:38:30;;;;;;;23.83;14.15;;;7.30;99.90;;;;;;5135235;27;20031;-70
2022/01/23 03:40:55;;;;;;;24.30;15.23;;;7.40;99.90;;;;;;5135135;27;20027;-69
2022/01/23 03:43:28;;;;;;;23.48;15.48;;;7.20;99.90;;;;;;5136159;27;20068;-69
2022/01/23 03:46:22;;;;;;;25.27;15.65;;;7.20;99.90;;;;;;5135935;27;20028;-66
2022/01/23 03:51:21;;;;;;;28.95;16.60;;;7.20;99.90;;;;;;5136170;27;20449;-67
2022/01/23 03:53:47;;;;;;;26.52;15.25;;;7.20;99.90;;;;;;5135455;27;20100;-67
2022/01/23 03:56:14;;;;;;;24.08;15.05;;;7.20;99.90;;;;;;5135957;27;20023;-67
2022/01/23 03:58:40;;;;;;;26.10;16.70;;;7.10;99.90;;;;;;5134092;27;20019;-67
2022/01/23 04:01:06;;;;;;;26.70;15.35;;;7.10;99.90;;;;;;5136059;27;20518;-67
2022/01/23 04:03:37;;;;;;;29.38;16.30;;;7.20;99.90;;;;;;5135614;27;20094;-67
2022/01/23 04:06:02;;;;;;;27.05;16.52;;;7.20;99.90;;;;;;5137097;27;20023;-70
2022/01/23 04:08:28;;;;;;;26.90;15.35;;;7.20;99.90;;;;;;5137453;27;20029;-66
2022/01/23 04:10:55;;;;;;;24.25;15.93;;;7.20;99.90;;;;;;5138306;27;20102;-67
2022/01/23 04:13:28;;;;;;;30.20;16.77;;;7.20;99.90;;;;;;5135752;27;20023;-67
2022/01/23 04:34:55;;;;;;;25.13;15.43;;;7.20;99.90;;;;;;5134780;27;20373;-67
2022/01/23 04:45:38;;;;;;;25.08;14.68;;;7.20;99.90;;;;;;5134956;27;20030;-67
2022/01/23 05:02:03;;;;;;;25.65;14.63;;;7.10;99.90;;;;;;5134673;27;20037;-71
2022/01/23 05:04:32;;;;;;;26.10;14.57;;;7.10;99.90;;;;;;5135245;27;20149;-67
2022/01/23 05:07:00;;;;;;;25.65;15.25;;;7.20;99.90;;;;;;5134341;27;20465;-70
2022/01/23 05:09:28;;;;;;;24.95;13.98;;;7.20;99.90;;;;;;5135187;27;20019;-66
2022/01/23 05:12:12;;;;;;;27.00;16.00;;;7.20;99.90;;;;;;5133854;27;20019;-68
2022/01/23 05:14:42;;;;;;;27.52;15.68;;;7.20;99.90;;;;;;5134297;27;20038;-67
2022/01/23 05:17:11;;;;;;;24.40;15.18;;;7.20;99.90;;;;;;5134581;27;20065;-67
2022/01/23 05:19:38;;;;;;;23.63;14.15;;;7.20;99.90;;;;;;5133948;27;20058;-66
2022/01/23 05:22:19;;;;;;;26.23;15.73;;;7.20;99.90;;;;;;5133767;27;20023;-69
2022/01/23 05:24:53;;;;;;;24.08;13.65;;;7.10;99.90;;;;;;5132725;27;20047;-68
2022/01/23 05:27:23;;;;;;;25.35;14.88;;;7.20;99.90;;;;;;5134741;27;20531;-67
2022/01/23 05:29:50;;;;;;;24.00;15.30;;;7.20;99.90;;;;;;5132933;27;20425;-67
2022/01/23 05:32:15;;;;;;;25.83;15.02;;;7.10;99.90;;;;;;5133232;27;20027;-67
2022/01/23 05:34:42;;;;;;;24.85;14.88;;;7.20;99.90;;;;;;5132585;27;20027;-67
2022/01/23 05:37:08;;;;;;;22.50;14.13;;;7.20;99.90;;;;;;5134339;27;20030;-67
2022/01/23 05:39:34;;;;;;;25.13;14.32;;;7.20;99.90;;;;;;5134129;27;20031;-67
2022/01/23 05:42:07;;;;;;;21.67;12.52;;;7.20;99.90;;;;;;5132251;27;20466;-67
2022/01/23 05:44:35;;;;;;;26.08;14.15;;;7.20;99.90;;;;;;5133859;27;20101;-71
2022/01/23 05:47:00;;;;;;;22.90;13.60;;;7.10;99.90;;;;;;5132027;27;20026;-68
2022/01/23 05:49:27;;;;;;;21.85;12.38;;;7.10;99.90;;;;;;5133423;27;20035;-69
2022/01/23 05:51:53;;;;;;;23.88;13.77;;;7.10;99.90;;;;;;5132815;27;20504;-67
2022/01/23 05:54:18;;;;;;;22.70;13.60;;;7.20;99.90;;;;;;5131867;27;20035;-67
2022/01/23 05:56:44;;;;;;;21.38;12.23;;;7.10;99.90;;;;;;5133069;27;20108;-69
2022/01/23 05:59:10;;;;;;;21.90;13.25;;;7.20;99.90;;;;;;5132373;27;20495;-68
2022/01/23 06:01:35;;;;;;;23.38;12.75;;;7.20;99.90;;;;;;5133645;28;20030;-67
2022/01/23 06:04:01;;;;;;;23.60;14.48;;;7.20;99.90;;;;;;5132963;28;20028;-67
2022/01/23 06:06:26;;;;;;;26.40;14.07;;;7.20;99.90;;;;;;5133439;28;20384;-67
2022/01/23 06:08:52;;;;;;;22.60;13.02;;;7.20;99.90;;;;;;5132600;28;20023;-67
2022/01/23 06:11:18;;;;;;;20.40;12.68;;;7.20;99.90;;;;;;5133325;28;20097;-67
2022/01/23 06:13:43;;;;;;;23.45;13.80;;;7.10;99.90;;;;;;5132710;28;20068;-67
2022/01/23 06:16:09;;;;;;;23.67;13.30;;;7.10;99.90;;;;;;5134513;28;20445;-67
2022/01/23 06:18:38;;;;;;;24.65;14.45;;;7.20;99.90;;;;;;5135076;27;20096;-67
2022/01/23 06:21:04;;;;;;;22.27;14.10;;;7.20;99.90;;;;;;5134464;28;20488;-68
2022/01/23 06:23:30;;;;;;;20.98;13.95;;;7.20;99.90;;;;;;5135315;28;20047;-71
2022/01/23 06:25:57;;;;;;;23.90;14.90;;;7.10;99.90;;;;;;5133842;28;20019;-67
2022/01/23 06:28:30;;;;;;;23.40;14.00;;;7.10;99.90;;;;;;5133484;27;20027;-68
2022/01/23 06:30:56;;;;;;;22.60;13.70;;;7.10;99.90;;;;;;5132938;27;20116;-67
2022/01/23 06:33:21;;;;;;;21.00;13.23;;;7.10;99.90;;;;;;5133208;28;20349;-67
2022/01/23 06:35:47;;;;;;;24.50;13.75;;;7.10;99.90;;;;;;5131353;28;20031;-68
2022/01/23 06:38:13;;;;;;;24.67;14.57;;;7.10;99.90;;;;;;5132978;28;20019;-67
2022/01/23 06:40:38;;;;;;;22.45;13.90;;;7.10;99.90;;;;;;5133340;28;20041;-69
2022/01/23 06:43:04;;;;;;;25.02;15.32;;;7.10;99.90;;;;;;5131484;28;20479;-68
2022/01/23 06:45:31;;;;;;;24.58;15.00;;;7.20;99.90;;;;;;5133402;28;20030;-67
2022/01/23 06:47:56;;;;;;;24.52;14.80;;;7.10;99.90;;;;;;5132977;27;20034;-69
2022/01/23 06:50:22;;;;;;;24.73;14.45;;;7.20;99.90;;;;;;5133161;28;20028;-67
2022/01/23 06:52:47;;;;;;;25.48;14.93;;;7.10;99.90;;;;;;5132624;28;20023;-67
2022/01/23 06:55:16;;;;;;;27.38;16.05;;;7.20;99.90;;;;;;5131592;28;20383;-68
2022/01/23 06:57:42;;;;;;;29.23;15.73;;;7.10;99.90;;;;;;5132959;28;20051;-69
2022/01/23 07:00:08;;;;;;;26.33;15.75;;;7.00;99.90;;;;;;5132722;28;20090;-67
2022/01/23 07:02:33;;;;;;;30.75;16.55;;;7.00;99.90;;;;;;5133706;27;20536;-67
2022/01/23 07:04:59;;;;;;;30.95;17.25;;;6.80;99.90;;;;;;5136191;27;20054;-71
2022/01/23 07:07:24;;;;;;;30.48;16.50;;;6.80;99.90;;;;;;5138318;27;20024;-67
2022/01/23 07:09:50;;;;;;;23.50;15.05;;;6.90;99.90;;;;;;5136493;27;20023;-67
2022/01/23 07:12:16;;;;;;;26.90;16.23;;;6.90;99.90;;;;;;5136860;27;20031;-67
2022/01/23 07:14:41;;;;;;;27.30;15.68;;;6.90;99.90;;;;;;5136164;27;20023;-73
2022/01/23 07:17:07;;;;;;;28.88;15.95;;;6.90;99.90;;;;;;5136441;27;20025;-68
2022/01/23 07:19:33;;;;;;;29.40;16.38;;;7.00;99.90;;;;;;5136613;27;20035;-68
2022/01/23 07:21:58;;;;;;;31.17;16.75;;;7.00;99.90;;;;;;5134736;27;20024;-67
2022/01/23 07:24:24;;;;;;;29.48;16.10;;;7.00;99.90;;;;;;5136507;27;20051;-67
2022/01/23 07:26:50;;;;;;;29.83;17.50;;;7.00;99.90;;;;;;5136333;27;20019;-67
2022/01/23 07:29:17;;;;;;;28.98;16.50;;;7.00;99.90;;;;;;5137569;27;20033;-67
2022/01/23 07:31:56;;;;;;;29.02;17.60;;;7.00;99.90;;;;;;5137735;27;20022;-72
2022/01/23 07:34:21;;;;;;;32.08;17.27;;;7.10;99.90;;;;;;5136947;27;20475;-67
2022/01/23 07:36:47;;;;;;;27.40;16.27;;;7.10;99.90;;;;;;5136314;27;20028;-68
2022/01/23 07:39:12;;;;;;;31.40;18.20;;;7.00;99.90;;;;;;5135651;27;20034;-67
2022/01/23 07:41:38;;;;;;;29.27;16.63;;;7.00;99.90;;;;;;5136300;27;20462;-68
2022/01/23 07:44:04;;;;;;;29.88;16.33;;;7.10;99.90;;;;;;5134096;27;20385;-67
2022/01/23 07:46:30;;;;;;;25.73;15.70;;;7.00;99.90;;;;;;5136265;27;20083;-67
2022/01/23 07:48:55;;;;;;;32.03;16.50;;;7.00;99.90;;;;;;5134315;27;20063;-68
2022/01/23 07:51:21;;;;;;;29.35;16.75;;;7.10;99.90;;;;;;5136474;27;20023;-67
2022/01/23 07:53:47;;;;;;;30.50;17.17;;;7.10;99.90;;;;;;5134172;27;20042;-67
2022/01/23 07:56:13;;;;;;;31.00;18.17;;;7.10;99.90;;;;;;5136357;27;20027;-67
2022/01/23 07:58:38;;;;;;;29.17;17.58;;;7.10;99.90;;;;;;5136190;27;20078;-68
2022/01/23 08:01:04;;;;;;;32.42;17.58;;;7.10;99.90;;;;;;5135242;27;20096;-68
2022/01/23 08:03:30;;;;;;;28.38;16.58;;;7.20;99.90;;;;;;5135369;27;20091;-66
2022/01/23 08:05:55;;;;;;;28.15;16.65;;;7.30;99.90;;;;;;5134041;27;20426;-67
2022/01/23 08:08:21;;;;;;;26.63;15.63;;;7.30;99.90;;;;;;5135974;27;20062;-67
2022/01/23 08:10:47;;;;;;;31.75;18.17;;;7.30;99.90;;;;;;5134912;27;20031;-67
2022/01/23 08:13:12;;;;;;;25.63;15.25;;;7.40;99.90;;;;;;5135795;27;20024;-68
2022/01/23 08:15:38;;;;;;;34.33;17.85;;;7.40;99.90;;;;;;5134100;27;20453;-68
2022/01/23 08:18:06;;;;;;;30.77;17.88;;;7.40;99.90;;;;;;5136547;27;20404;-67
2022/01/23 08:20:33;;;;;;;33.80;18.85;;;7.40;99.90;;;;;;5134857;27;20038;-67
2022/01/23 08:23:03;;;;;;;30.88;17.92;;;7.50;99.90;;;;;;5134867;27;20031;-68
2022/01/23 08:25:30;;;;;;;31.83;18.40;;;7.50;99.90;;;;;;5135294;27;20031;-68
2022/01/23 08:27:56;;;;;;;28.50;18.05;;;7.40;99.90;;;;;;5134407;27;20019;-69
2022/01/23 08:30:22;;;;;;;29.52;18.50;;;7.50;99.90;;;;;;5116665;27;20045;-68
2022/01/23 08:32:48;;;;;;;32.22;19.13;;;7.50;99.90;;;;;;5135012;27;20024;-70
2022/01/23 08:35:14;;;;;;;33.20;19.58;;;7.50;99.90;;;;;;5134850;27;20019;-67
2022/01/23 08:37:40;;;;;;;29.67;17.90;;;7.40;99.90;;;;;;5134067;27;20027;-69
2022/01/23 08:40:17;;;;;;;31.05;18.23;;;7.40;99.90;;;;;;5134581;27;20031;-70
2022/01/23 08:42:42;;;;;;;33.53;19.20;;;7.40;99.90;;;;;;5134737;27;20029;-70
2022/01/23 08:45:09;;;;;;;31.15;18.63;;;7.50;99.90;;;;;;5135106;27;20447;-67
2022/01/23 08:47:34;;;;;;;28.60;17.42;;;7.50;99.90;;;;;;5135759;27;20023;-67
2022/01/23 08:50:00;;;;;;;28.05;16.08;;;7.50;99.90;;;;;;5133109;27;20041;-68
2022/01/23 08:52:25;;;;;;;27.83;16.92;;;7.50;99.90;;;;;;5134726;27;20058;-68
2022/01/23 08:54:56;;;;;;;26.88;16.10;;;7.50;99.90;;;;;;5134686;27;20035;-67
2022/01/23 08:57:23;;;;;;;31.30;18.00;;;7.60;99.90;;;;;;5134198;27;20075;-67
2022/01/23 08:59:50;;;;;;;27.27;17.27;;;7.70;99.90;;;;;;5132879;27;20038;-68
2022/01/23 09:02:16;;;;;;;24.40;15.32;;;7.70;99.90;;;;;;5134390;27;20023;-67
2022/01/23 09:04:43;;;;;;;23.00;14.02;;;7.80;99.90;;;;;;5133299;27;20027;-67
2022/01/23 09:07:09;;;;;;;24.77;14.05;;;7.80;99.90;;;;;;5132298;27;20033;-68
2022/01/23 09:09:38;;;;;;;23.70;14.73;;;7.80;99.90;;;;;;5134647;27;20027;-68
2022/01/23 09:12:10;;;;;;;25.58;15.00;;;7.80;99.90;;;;;;5134104;27;20443;-67
2022/01/23 09:14:36;;;;;;;27.08;14.63;;;7.80;99.90;;;;;;5116101;27;20035;-68
2022/01/23 09:17:04;;;;;;;25.10;15.15;;;7.80;99.90;;;;;;5133901;27;20019;-68
2022/01/23 09:19:30;;;;;;;26.00;14.68;;;7.80;99.90;;;;;;5133047;27;20043;-68
2022/01/23 09:21:56;;;;;;;23.65;14.63;;;7.80;99.90;;;;;;5133798;27;20095;-67
2022/01/23 09:24:25;;;;;;;19.60;12.00;;;7.80;99.90;;;;;;5134712;27;20047;-67
2022/01/23 09:26:54;;;;;;;20.35;12.25;;;7.90;99.90;;;;;;5117263;27;20031;-69
2022/01/23 09:29:31;;;;;;;17.17;11.13;;;8.00;99.90;;;;;;5140034;27;20053;-64
2022/01/23 09:31:57;;;;;;;19.25;10.43;;;7.80;99.90;;;;;;5135816;27;20019;-69
2022/01/23 09:34:26;;;;;;;20.95;11.68;;;8.00;99.90;;;;;;5134458;27;20073;-68
2022/01/23 09:36:54;;;;;;;19.20;11.48;;;8.00;99.90;;;;;;5132080;27;20429;-68
2022/01/23 09:39:20;;;;;;;17.08;10.48;;;8.10;99.90;;;;;;5133973;27;20080;-67
2022/01/23 09:41:50;;;;;;;20.90;10.55;;;8.10;99.90;;;;;;5133764;27;20031;-68
2022/01/23 09:44:18;;;;;;;14.60;8.63;;;8.20;99.90;;;;;;5134346;27;20027;-69
2022/01/23 09:46:46;;;;;;;16.27;9.20;;;8.20;99.90;;;;;;5133571;27;20019;-68
2022/01/23 09:49:14;;;;;;;14.20;9.18;;;8.20;99.90;;;;;;5133508;27;20027;-68
2022/01/23 09:51:45;;;;;;;18.27;8.40;;;8.30;99.90;;;;;;5132937;27;20076;-69
2022/01/23 09:54:14;;;;;;;17.23;9.40;;;8.30;99.90;;;;;;5132251;27;20035;-68
2022/01/23 09:56:42;;;;;;;26.45;11.45;;;8.30;99.90;;;;;;5134076;27;20090;-70
2022/01/23 09:59:13;;;;;;;13.05;8.40;;;8.30;99.90;;;;;;5132818;27;20027;-69
2022/01/23 10:01:45;;;;;;;16.85;9.30;;;8.20;99.90;;;;;;5135239;27;20032;-68
2022/01/23 10:04:12;;;;;;;42.83;9.98;;;8.30;99.90;;;;;;5134143;27;20049;-69
2022/01/23 10:06:37;;;;;;;14.90;8.65;;;8.40;99.90;;;;;;5134417;27;20098;-68
2022/01/23 10:09:07;;;;;;;18.98;8.77;;;8.40;99.90;;;;;;5133469;28;20046;-68
2022/01/23 10:11:38;;;;;;;15.65;8.70;;;8.40;99.90;;;;;;5132874;28;20019;-69
2022/01/23 10:14:05;;;;;;;13.65;8.93;;;8.40;99.90;;;;;;5134260;27;20046;-69
2022/01/23 10:16:32;;;;;;;14.82;9.57;;;8.40;99.90;;;;;;5134920;27;20076;-68
2022/01/23 10:18:59;;;;;;;18.38;9.43;;;8.50;99.90;;;;;;5134594;28;20024;-68
2022/01/23 10:21:25;;;;;;;15.52;7.85;;;8.50;99.90;;;;;;5135168;27;20049;-68
2022/01/23 10:23:52;;;;;;;14.95;8.30;;;8.60;99.90;;;;;;5135302;28;20051;-69
2022/01/23 10:26:37;;;;;;;12.48;7.65;;;8.50;99.90;;;;;;5138364;27;20065;-68
2022/01/23 10:29:35;;;;;;;12.93;7.28;;;8.60;99.90;;;;;;5135400;28;20034;-68
2022/01/23 10:32:08;;;;;;;16.30;7.90;;;8.60;99.90;;;;;;5131975;28;20039;-68
2022/01/23 10:34:43;;;;;;;13.73;8.27;;;8.60;99.90;;;;;;5133155;28;20020;-69
2022/01/23 10:37:09;;;;;;;15.88;8.23;;;8.60;99.90;;;;;;5133038;27;20087;-68
2022/01/23 10:39:42;;;;;;;22.42;7.63;;;8.60;99.90;;;;;;5135216;27;20031;-67
2022/01/23 10:51:16;;;;;;;9.18;5.63;;;8.60;99.90;;;;;;5119071;27;20117;-72
2022/01/23 10:54:05;;;;;;;9.43;5.82;;;8.80;99.90;;;;;;5119377;28;20486;-69
2022/01/23 10:56:34;;;;;;;10.30;6.28;;;8.80;99.90;;;;;;5108629;28;20069;-67
2022/01/23 10:59:09;;;;;;;11.40;6.75;;;8.90;99.90;;;;;;5118239;27;20599;-67
2022/01/23 11:01:36;;;;;;;10.95;6.57;;;9.00;99.90;;;;;;5119023;27;20066;-68
2022/01/23 11:04:13;;;;;;;14.38;5.78;;;9.10;99.90;;;;;;5134778;27;20023;-67
2022/01/23 11:06:52;;;;;;;12.18;5.65;;;9.20;99.90;;;;;;5136952;27;20019;-67
2022/01/23 11:09:17;;;;;;;12.57;5.60;;;9.30;99.90;;;;;;5117389;27;20039;-67
2022/01/23 11:11:47;;;;;;;9.15;4.90;;;9.30;99.90;;;;;;5116973;27;20023;-67
2022/01/23 11:19:46;;;;;;;10.93;4.35;;;9.50;99.90;;;;;;5118737;27;20038;-68
2022/01/23 11:22:19;;;;;;;13.80;6.22;;;9.50;99.90;;;;;;5120750;27;20019;-66
2022/01/23 11:24:47;;;;;;;6.50;3.75;;;9.50;99.90;;;;;;5117215;27;20427;-68
2022/01/23 11:27:18;;;;;;;12.75;5.18;;;9.50;99.90;;;;;;5134274;27;20023;-69
2022/01/23 11:30:01;;;;;;;7.90;4.28;;;9.50;99.90;;;;;;5135011;27;20019;-71
2022/01/23 11:32:32;;;;;;;16.15;4.95;;;9.50;99.90;;;;;;5123924;27;20062;-69
2022/01/23 11:35:05;;;;;;;7.03;3.78;;;9.50;99.90;;;;;;5118968;27;20030;-69
2022/01/23 11:37:32;;;;;;;15.35;3.80;;;9.60;99.90;;;;;;5116989;27;20023;-68
2022/01/23 11:40:04;;;;;;;7.15;3.50;;;9.60;99.90;;;;;;5116190;27;20452;-67
2022/01/23 11:51:18;;;;;;;10.45;4.47;;;10.00;99.90;;;;;;5114903;28;20442;-68
2022/01/23 11:53:47;;;;;;;10.90;3.67;;;10.10;99.90;;;;;;5116454;28;20430;-70
2022/01/23 11:56:25;;;;;;;13.13;5.63;;;10.00;99.90;;;;;;5113798;28;20039;-70
2022/01/23 11:59:10;;;;;;;6.25;3.50;;;10.30;99.90;;;;;;5115810;28;20015;-71
2022/01/23 12:01:38;;;;;;;8.63;3.60;;;10.50;99.90;;;;;;5118454;27;20447;-70
2022/01/23 12:04:15;;;;;;;3.83;2.03;;;10.60;99.90;;;;;;5123265;27;20030;-70
2022/01/23 12:06:42;;;;;;;6.45;1.85;;;10.70;99.90;;;;;;5125709;27;20015;-71
2022/01/23 12:09:16;;;;;;;3.50;2.13;;;10.90;99.90;;;;;;5130272;27;21123;-71
2022/01/23 12:12:01;;;;;;;2.65;1.75;;;10.90;99.90;;;;;;5125163;27;20079;-71
2022/01/23 12:17:07;;;;;;;3.45;2.25;;;10.30;99.90;;;;;;5116782;27;20460;-70
2022/01/23 12:19:47;;;;;;;4.50;2.03;;;10.30;99.90;;;;;;5120552;27;20035;-71
2022/01/23 12:22:35;;;;;;;21.35;3.33;;;9.90;99.90;;;;;;5131657;27;20387;-75
2022/01/23 12:25:27;;;;;;;4.35;1.75;;;9.60;99.90;;;;;;5114514;27;20542;-70
2022/01/23 12:28:33;;;;;;;4.80;1.92;;;9.80;99.90;;;;;;5113132;27;20518;-71
2022/01/23 12:31:17;;;;;;;5.35;1.92;;;9.70;99.90;;;;;;5042725;28;20537;-71
2022/01/23 12:33:44;;;;;;;5.85;1.83;;;9.60;99.90;;;;;;5046178;28;20017;-71
2022/01/23 12:36:13;;;;;;;4.80;1.00;;;9.60;99.90;;;;;;5047208;28;20116;-70
2022/01/23 12:38:43;;;;;;;4.07;1.70;;;9.50;99.90;;;;;;5032620;28;20342;-70
2022/01/23 12:41:21;;;;;;;2.92;0.85;;;9.50;99.70;;;;;;5052839;28;20148;-71
2022/01/23 12:43:47;;;;;;;6.40;1.02;;;9.50;99.60;;;;;;5057349;28;20036;-70
2022/01/23 12:46:42;;;;;;;5.20;0.80;;;9.50;99.10;;;;;;5050448;28;20033;-71
2022/01/23 12:49:26;;;;;;;4.40;1.05;;;9.40;98.70;;;;;;5036276;28;20041;-72
2022/01/23 12:52:09;;;;;;;4.30;1.70;;;9.40;99.00;;;;;;5015550;28;20030;-70
2022/01/23 12:54:47;;;;;;;4.43;1.25;;;9.40;98.80;;;;;;5015073;28;20097;-69
2022/01/23 12:57:19;;;;;;;4.10;1.17;;;9.30;99.20;;;;;;5030351;28;20106;-70
2022/01/23 12:59:53;;;;;;;8.30;1.23;;;9.40;99.00;;;;;;5031137;28;20048;-71
2022/01/23 13:02:21;;;;;;;2.00;1.08;;;9.40;98.50;;;;;;5087169;28;20151;-72
2022/01/23 13:04:50;;;;;;;8.98;3.95;;;9.30;98.40;;;;;;5112295;28;20033;-66
2022/01/23 13:07:41;;;;;;;3.17;1.85;;;9.30;99.90;;;;;;5111421;28;20450;-71
2022/01/23 13:12:53;;;;;;;3.17;1.90;;;9.70;99.90;;;;;;5113595;27;20145;-66
2022/01/23 13:18:16;;;;;;;5.97;2.03;;;9.80;99.90;;;;;;5116433;27;20039;-69
2022/01/23 13:32:29;;;;;;;4.40;1.95;;;9.90;99.00;;;;;;5127416;27;20038;-75
2022/01/23 13:34:58;;;;;;;;;;;9.60;99.40;;;;;;5119836;27;20027;-72
2022/01/23 13:37:27;;;;;;;6.28;2.03;;;9.60;99.60;;;;;;5150278;27;20379;-70
2022/01/23 13:40:03;;;;;;;3.70;1.70;;;9.50;99.50;;;;;;5143293;27;20035;-72
2022/01/23 14:02:32;;;;;;;5.20;3.00;;;9.00;99.90;;;;;;5108858;28;20031;-73
2022/01/23 14:05:22;;;;;;;3.65;2.45;;;9.00;99.90;;;;;;5110894;28;20130;-72
2022/01/23 14:07:57;;;;;;;4.93;2.20;;;9.00;99.90;;;;;;5123371;27;20027;-71
2022/01/23 14:10:38;;;;;;;2.88;2.33;;;9.00;99.90;;;;;;5114994;28;20193;-71
2022/01/23 14:13:05;;;;;;;4.00;2.10;;;8.90;99.90;;;;;;5121505;28;20032;-72
2022/01/23 14:15:31;;;;;;;2.70;1.98;;;8.90;99.90;;;;;;5114220;27;20277;-71
2022/01/23 14:18:03;;;;;;;6.60;2.42;;;8.90;99.90;;;;;;5111476;28;20084;-71
2022/01/23 14:20:31;;;;;;;7.18;1.60;;;8.90;99.90;;;;;;5112857;27;20035;-71
2022/01/23 14:22:58;;;;;;;5.05;2.05;;;8.90;99.90;;;;;;5112685;27;20100;-72
2022/01/23 14:25:27;;;;;;;4.22;2.42;;;8.90;99.90;;;;;;5126204;27;20043;-70
2022/01/23 14:28:07;;;;;;;3.75;2.25;;;8.80;99.90;;;;;;5130872;27;20031;-71
2022/01/23 14:30:40;;;;;;;2.45;1.60;;;8.80;99.90;;;;;;5121688;27;20111;-71
2022/01/23 14:33:15;;;;;;;4.70;2.05;;;8.60;99.90;;;;;;5124356;27;20031;-71
2022/01/23 14:35:42;;;;;;;3.22;2.13;;;8.60;99.90;;;;;;5127036;27;20031;-71
2022/01/23 14:38:27;;;;;;;3.00;2.17;;;8.60;99.90;;;;;;5124025;27;20072;-72
2022/01/23 14:41:09;;;;;;;6.68;2.05;;;8.60;99.90;;;;;;5126177;27;20132;-73
2022/01/23 14:43:42;;;;;;;7.28;2.22;;;8.60;99.90;;;;;;5126107;27;20455;-72
2022/01/23 14:46:12;;;;;;;6.00;2.10;;;8.70;99.90;;;;;;5102009;27;20366;-70
2022/01/23 14:48:45;;;;;;;4.38;2.70;;;8.60;99.90;;;;;;5120769;27;20023;-72
2022/01/23 14:51:16;;;;;;;3.70;1.63;;;8.60;99.90;;;;;;5115197;27;20135;-74
2022/01/23 14:53:42;;;;;;;2.92;1.90;;;8.60;99.90;;;;;;5130724;27;20088;-71
2022/01/23 14:56:10;;;;;;;4.03;1.73;;;8.50;99.90;;;;;;5130414;27;20027;-73
2022/01/23 14:58:37;;;;;;;8.45;2.47;;;8.40;99.90;;;;;;5121815;27;20510;-71
2022/01/23 15:01:05;;;;;;;4.80;2.25;;;8.50;99.90;;;;;;5124367;27;20046;-72
2022/01/23 15:03:31;;;;;;;6.70;1.90;;;8.50;99.90;;;;;;5110923;28;20563;-71
2022/01/23 15:05:59;;;;;;;5.30;1.75;;;8.40;99.90;;;;;;5111888;28;20393;-75
2022/01/23 15:08:25;;;;;;;6.60;2.22;;;8.50;99.90;;;;;;5130076;27;20488;-73
2022/01/23 15:10:54;;;;;;;3.75;2.53;;;8.40;99.90;;;;;;5128421;27;20050;-73
2022/01/23 15:13:19;;;;;;;4.28;2.10;;;8.50;99.90;;;;;;5116658;27;20319;-71
2022/01/23 15:15:46;;;;;;;3.00;2.00;;;8.50;99.90;;;;;;5126177;27;20092;-72
2022/01/23 15:18:13;;;;;;;6.43;2.00;;;8.50;99.90;;;;;;5129442;27;20027;-73
2022/01/23 15:20:39;;;;;;;2.78;2.05;;;8.50;99.90;;;;;;5136051;27;20372;-70
2022/01/23 15:23:09;;;;;;;4.55;2.38;;;8.50;99.90;;;;;;5138475;27;20479;-75
2022/01/23 15:25:38;;;;;;;5.47;1.98;;;8.50;99.90;;;;;;5136247;27;20440;-75
2022/01/23 15:28:05;;;;;;;2.10;1.50;;;8.60;99.90;;;;;;5137983;27;20059;-70
2022/01/23 15:30:31;;;;;;;2.97;2.00;;;8.50;99.90;;;;;;5137655;27;20027;-70
2022/01/23 15:32:57;;;;;;;4.45;2.20;;;8.50;99.90;;;;;;5137898;27;20102;-71
2022/01/23 15:35:25;;;;;;;3.85;2.38;;;8.40;99.90;;;;;;5137340;27;20031;-70
2022/01/23 15:37:51;;;;;;;2.53;1.83;;;8.40;99.90;;;;;;5137439;27;20046;-73
2022/01/23 15:40:19;;;;;;;13.02;2.30;;;8.30;99.90;;;;;;5137211;27;20092;-71
2022/01/23 15:42:46;;;;;;;7.25;2.22;;;8.40;99.90;;;;;;5138928;27;20055;-73
2022/01/23 15:45:12;;;;;;;5.80;3.17;;;8.30;99.90;;;;;;5137466;27;20023;-70
2022/01/23 15:47:39;;;;;;;5.78;1.98;;;8.40;99.90;;;;;;5136429;27;20024;-72
2022/01/23 15:50:07;;;;;;;4.45;1.85;;;8.50;99.90;;;;;;5135446;27;20035;-69
2022/01/23 15:52:34;;;;;;;2.35;1.48;;;8.30;99.90;;;;;;5117932;27;20027;-71
2022/01/23 15:55:00;;;;;;;5.95;1.63;;;8.20;99.90;;;;;;5136264;27;20082;-69
2022/01/23 15:57:26;;;;;;;4.00;2.05;;;8.20;99.90;;;;;;5133639;27;20027;-69
2022/01/23 15:59:52;;;;;;;2.25;1.60;;;8.10;99.90;;;;;;5132692;27;20396;-67
2022/01/23 16:02:18;;;;;;;5.68;1.60;;;8.00;99.90;;;;;;5129046;27;20090;-69
2022/01/23 16:04:44;;;;;;;4.32;2.53;;;8.00;99.90;;;;;;5114646;28;20376;-69
2022/01/23 16:07:16;;;;;;;3.67;1.58;;;7.90;99.90;;;;;;5115100;28;20035;-69
2022/01/23 16:09:48;;;;;;;1.98;1.17;;;7.90;99.90;;;;;;5116063;28;20027;-68
2022/01/23 16:12:15;;;;;;;3.80;1.65;;;7.90;99.90;;;;;;5123246;27;20061;-68
2022/01/23 16:14:41;;;;;;;2.33;1.30;;;8.10;99.90;;;;;;5122121;27;20026;-68